Time;durP1;ratioP1;P1;durP2;ratioP2;P2;SDS_P1;SDS_P2;PMS_P1;PMS_P2;Temp;Humidity;BMP_temperature;BMP_pressure;BME280_temperature;BME280_humidity;BME280_pressure;Samples;Min_cycle;Max_cycle;Signal;HPM_P1;HPM_P2
2021/10/01 00:03:48;;;;;;;10.60;6.90;;;18.50;59.50;;;;;;20799953;28;80561;-70
2021/10/01 00:13:50;;;;;;;13.87;7.03;;;18.40;60.10;;;;;;20797719;28;81070;-70
2021/10/01 00:23:52;;;;;;;13.17;7.90;;;18.20;60.50;;;;;;20798253;28;80845;-70
2021/10/01 00:33:54;;;;;;;13.37;7.50;;;18.00;61.00;;;;;;20798551;28;80903;-71
2021/10/01 00:43:56;;;;;;;9.77;6.67;;;17.90;61.40;;;;;;20797933;28;80064;-71
2021/10/01 00:53:58;;;;;;;11.70;6.53;;;17.90;61.50;;;;;;20797031;28;80129;-69
2021/10/01 01:04:10;;;;;;;10.05;6.13;;;17.80;61.60;;;;;;20796354;28;80852;-68
2021/10/01 01:14:23;;;;;;;8.68;5.63;;;17.70;61.80;;;;;;20808712;27;80524;-69
2021/10/01 01:24:53;;;;;;;9.77;6.32;;;17.60;61.80;;;;;;20810803;28;79977;-68
2021/10/01 01:35:07;;;;;;;9.63;6.35;;;17.50;62.00;;;;;;20809148;28;80752;-70
2021/10/01 01:45:14;;;;;;;10.10;5.78;;;17.40;63.70;;;;;;20809704;28;81722;-71
2021/10/01 01:55:20;;;;;;;8.93;5.63;;;17.20;63.60;;;;;;20798118;28;81909;-69
2021/10/01 02:05:24;;;;;;;9.35;6.10;;;17.20;64.20;;;;;;20802978;27;80597;-71
2021/10/01 02:15:34;;;;;;;9.32;5.20;;;17.10;64.00;;;;;;20805599;28;80808;-70
2021/10/01 02:36:08;;;;;;;10.18;5.40;;;16.90;65.30;;;;;;20797791;28;80488;-69
2021/10/01 02:46:15;;;;;;;8.60;5.50;;;16.90;65.00;;;;;;20803451;28;81891;-70
2021/10/01 02:56:29;;;;;;;;;;;16.90;64.90;;;;;;20803175;28;82230;-69
2021/10/01 03:06:35;;;;;;;9.82;4.50;;;16.90;64.60;;;;;;20820151;28;80813;-69
2021/10/01 03:16:48;;;;;;;10.13;4.78;;;16.80;63.60;;;;;;20799126;27;79983;-69
2021/10/01 03:27:10;;;;;;;6.82;3.65;;;16.70;63.60;;;;;;20794456;28;82314;-71
2021/10/01 03:37:31;;;;;;;9.57;5.13;;;16.60;63.40;;;;;;20792756;27;80382;-73
2021/10/01 03:47:53;;;;;;;10.90;5.40;;;16.50;64.70;;;;;;20800927;28;80739;-70
2021/10/01 03:58:05;;;;;;;11.63;4.57;;;16.40;65.10;;;;;;20798760;28;80747;-70
2021/10/01 04:08:19;;;;;;;11.30;5.30;;;16.40;64.80;;;;;;20772114;28;80803;-70
2021/10/01 04:18:24;;;;;;;9.48;5.75;;;16.30;64.90;;;;;;20782446;28;82096;-69
2021/10/01 04:28:33;;;;;;;9.73;6.07;;;16.20;65.40;;;;;;20784995;28;80940;-70
2021/10/01 04:38:42;;;;;;;8.82;5.95;;;16.00;65.60;;;;;;20797457;28;80966;-70
2021/10/01 04:48:59;;;;;;;11.57;5.72;;;15.90;66.20;;;;;;20810793;28;80931;-70
2021/10/01 04:59:04;;;;;;;10.05;5.95;;;15.80;66.90;;;;;;20812999;28;82101;-70
2021/10/01 05:09:08;;;;;;;8.82;5.95;;;15.90;66.70;;;;;;20811433;27;80974;-70
2021/10/01 05:19:14;;;;;;;8.70;5.65;;;16.00;66.50;;;;;;20812510;28;81888;-70
2021/10/01 05:29:19;;;;;;;8.10;5.18;;;16.00;66.00;;;;;;20810822;28;80578;-70
2021/10/01 05:39:23;;;;;;;9.30;5.72;;;15.90;66.70;;;;;;20731993;28;82116;-71
2021/10/01 05:49:28;;;;;;;9.57;5.13;;;16.00;66.70;;;;;;20713028;28;81258;-70
2021/10/01 05:59:32;;;;;;;9.90;4.82;;;16.00;66.40;;;;;;20707983;28;81858;-70
2021/10/01 06:09:35;;;;;;;14.25;5.53;;;15.90;66.20;;;;;;20714153;28;81295;-59
2021/10/01 06:19:41;;;;;;;10.15;5.20;;;15.70;66.40;;;;;;20716907;28;81381;-63
2021/10/01 06:29:45;;;;;;;9.60;6.30;;;15.90;66.10;;;;;;20712861;28;81932;-60
2021/10/01 06:39:48;;;;;;;13.82;5.47;;;15.90;66.00;;;;;;20708621;28;81895;-60
2021/10/01 06:50:07;;;;;;;13.57;6.30;;;16.00;65.50;;;;;;20707263;28;81311;-62
2021/10/01 08:22:45;;;;;;;11.47;5.10;;;19.40;53.60;;;;;;20712521;28;81400;-61
2021/10/01 08:32:48;;;;;;;7.50;3.40;;;19.80;52.90;;;;;;20720415;28;81904;-60
2021/10/01 08:42:53;;;;;;;11.57;4.93;;;20.20;51.50;;;;;;20718559;28;80549;-60
2021/10/01 08:52:59;;;;;;;12.35;5.57;;;20.60;51.40;;;;;;20716738;28;81178;-61
2021/10/01 09:03:01;;;;;;;9.75;5.40;;;21.20;50.80;;;;;;20718976;28;81900;-62
2021/10/01 09:13:09;;;;;;;18.20;6.18;;;21.70;49.70;;;;;;20716970;28;81737;-60
2021/10/01 09:23:23;;;;;;;10.85;6.10;;;21.50;49.60;;;;;;20717990;28;81356;-61
2021/10/01 09:33:26;;;;;;;14.82;5.95;;;21.80;49.50;;;;;;20714915;28;81232;-60
2021/10/01 09:43:31;;;;;;;16.80;7.38;;;22.00;50.00;;;;;;20715347;28;81601;-61
2021/10/01 09:53:44;;;;;;;16.70;7.00;;;22.10;50.10;;;;;;20714383;28;81093;-60
2021/10/01 10:03:46;;;;;;;15.45;8.20;;;22.80;48.50;;;;;;20713284;28;81232;-60
2021/10/01 10:13:52;;;;;;;16.77;8.20;;;23.90;46.00;;;;;;20710406;28;81866;-61
2021/10/01 10:23:56;;;;;;;13.55;7.57;;;23.90;47.00;;;;;;20718394;28;81238;-61
2021/10/01 10:33:58;;;;;;;15.65;9.20;;;27.60;39.20;;;;;;20712658;28;81664;-61
2021/10/01 10:44:00;;;;;;;20.67;10.13;;;29.50;35.80;;;;;;20709792;28;82031;-61
2021/10/01 10:54:08;;;;;;;17.38;9.95;;;33.70;30.20;;;;;;20704560;28;84005;-62
2021/10/01 11:04:27;;;;;;;21.52;12.02;;;35.70;28.40;;;;;;20709834;28;82398;-60
2021/10/01 11:14:31;;;;;;;13.35;8.10;;;33.10;31.40;;;;;;20700702;28;84222;-62
2021/10/01 11:24:33;;;;;;;15.98;7.90;;;32.00;32.00;;;;;;20708148;28;83085;-60
2021/10/01 11:34:39;;;;;;;13.75;8.35;;;33.10;30.80;;;;;;20710990;28;81302;-60
2021/10/01 11:44:41;;;;;;;15.65;9.15;;;35.80;26.90;;;;;;20708197;28;81594;-61
2021/10/01 11:54:56;;;;;;;11.30;7.00;;;35.30;27.90;;;;;;20703406;28;81602;-63
2021/10/01 12:05:20;;;;;;;17.95;9.02;;;31.60;31.90;;;;;;20708720;28;81194;-61
2021/10/01 12:15:37;;;;;;;17.35;8.55;;;30.10;34.20;;;;;;20703402;28;81840;-63
2021/10/01 12:25:39;;;;;;;14.63;9.23;;;29.00;36.30;;;;;;20709713;28;81147;-63
2021/10/01 12:35:41;;;;;;;16.92;8.43;;;29.00;36.80;;;;;;20721654;28;81038;-62
2021/10/01 12:45:44;;;;;;;15.63;7.72;;;30.00;35.30;;;;;;20792329;28;81256;-63
2021/10/01 12:55:48;;;;;;;15.18;7.35;;;30.10;34.30;;;;;;20771216;28;80717;-65
2021/10/01 13:05:50;;;;;;;17.35;8.15;;;32.20;31.80;;;;;;20698819;28;80693;-62
2021/10/01 13:15:57;;;;;;;9.95;6.70;;;33.70;28.90;;;;;;20716544;28;81909;-64
2021/10/01 13:26:10;;;;;;;14.15;7.50;;;32.80;30.00;;;;;;20716606;28;81681;-64
2021/10/01 13:36:14;;;;;;;12.18;7.57;;;35.00;27.60;;;;;;20726696;28;80625;-64
2021/10/01 13:46:20;;;;;;;13.00;7.65;;;34.30;28.60;;;;;;20727353;28;81853;-63
2021/10/01 13:56:22;;;;;;;9.85;6.10;;;33.30;29.60;;;;;;20727447;28;82105;-63
2021/10/01 14:06:24;;;;;;;9.95;5.20;;;34.40;28.10;;;;;;20728189;28;81956;-65
2021/10/01 14:16:27;;;;;;;6.72;3.97;;;37.70;23.00;;;;;;20726960;28;81808;-64
2021/10/01 14:26:30;;;;;;;8.65;3.55;;;42.80;18.20;;;;;;20727262;28;81053;-63
2021/10/01 14:36:32;;;;;;;4.22;2.85;;;40.90;18.70;;;;;;20723817;28;80968;-62
2021/10/01 14:46:34;;;;;;;6.13;2.80;;;36.80;21.50;;;;;;20722422;28;80447;-63
2021/10/01 14:56:36;;;;;;;4.03;2.60;;;35.00;22.90;;;;;;20723635;28;80820;-63
2021/10/01 15:06:39;;;;;;;5.00;2.47;;;34.20;23.20;;;;;;20721825;28;81792;-64
2021/10/01 15:16:41;;;;;;;3.90;2.30;;;31.90;24.50;;;;;;20720997;28;80902;-74
2021/10/01 15:26:43;;;;;;;4.85;2.17;;;32.10;23.60;;;;;;20720928;28;80680;-66
2021/10/01 15:36:45;;;;;;;5.15;2.13;;;32.40;22.80;;;;;;20721195;28;81519;-67
2021/10/01 15:46:48;;;;;;;2.80;1.50;;;32.10;22.20;;;;;;20720379;28;79859;-72
2021/10/01 15:56:50;;;;;;;2.67;1.48;;;31.60;22.20;;;;;;20720148;28;80733;-67
2021/10/01 16:06:51;;;;;;;3.63;1.45;;;30.10;23.80;;;;;;20719695;28;80722;-63
2021/10/01 16:16:53;;;;;;;2.50;1.50;;;29.40;24.70;;;;;;20719612;28;80847;-68
2021/10/01 16:26:55;;;;;;;5.63;2.00;;;28.70;26.30;;;;;;20718944;28;80718;-66
2021/10/01 16:36:57;;;;;;;3.88;2.03;;;27.80;28.00;;;;;;20719761;28;80721;-68
2021/10/01 16:46:59;;;;;;;5.72;2.05;;;27.40;29.60;;;;;;20732022;28;79934;-71
2021/10/01 16:57:02;;;;;;;6.28;2.53;;;27.40;29.80;;;;;;20730626;28;80540;-64
2021/10/01 17:07:03;;;;;;;7.00;2.92;;;27.00;31.20;;;;;;20730625;28;81738;-64
2021/10/01 17:17:05;;;;;;;6.53;2.60;;;26.80;32.90;;;;;;20729985;28;80735;-63
2021/10/01 17:27:07;;;;;;;7.82;2.72;;;26.40;32.60;;;;;;20729010;28;80781;-67
2021/10/01 17:37:09;;;;;;;6.82;2.60;;;26.10;32.90;;;;;;20728637;28;81071;-71
2021/10/01 17:47:11;;;;;;;4.28;2.38;;;25.80;32.80;;;;;;20727308;28;81740;-68
2021/10/01 17:57:13;;;;;;;6.18;2.50;;;25.40;33.60;;;;;;20725183;28;81811;-65
2021/10/01 18:07:15;;;;;;;4.53;2.72;;;24.90;35.20;;;;;;20725994;28;81105;-63
2021/10/01 18:17:17;;;;;;;6.43;2.97;;;24.50;36.10;;;;;;20725688;28;81569;-62
2021/10/01 18:27:18;;;;;;;6.22;2.85;;;24.20;37.00;;;;;;20725538;28;81925;-66
2021/10/01 18:37:20;;;;;;;8.15;3.55;;;24.00;38.10;;;;;;20725486;28;81756;-65
2021/10/01 18:47:22;;;;;;;8.77;3.10;;;23.80;38.20;;;;;;20725038;28;81839;-64
2021/10/01 18:57:25;;;;;;;;;;;23.70;38.90;;;;;;20724592;28;81877;-68
2021/10/01 19:07:27;;;;;;;5.75;3.22;;;23.50;39.20;;;;;;20744237;28;81406;-64
2021/10/01 19:17:29;;;;;;;8.15;3.67;;;23.40;40.30;;;;;;20722175;28;79985;-67
2021/10/01 19:37:38;;;;;;;7.78;3.55;;;23.10;41.60;;;;;;20722267;28;81012;-65
2021/10/01 19:47:40;;;;;;;7.22;4.32;;;22.90;42.50;;;;;;20720439;28;80737;-66
2021/10/01 19:57:42;;;;;;;10.75;4.07;;;22.70;43.30;;;;;;20720736;28;81754;-64
2021/10/01 20:07:44;;;;;;;9.40;4.03;;;22.50;44.80;;;;;;20721283;28;80064;-65
2021/10/01 20:17:58;;;;;;;8.60;4.73;;;22.40;45.10;;;;;;20738939;28;80815;-68
2021/10/01 20:48:22;;;;;;;8.10;5.00;;;21.90;48.80;;;;;;20745715;28;81074;-68
2021/10/01 20:58:31;;;;;;;14.60;5.47;;;21.70;49.90;;;;;;20745395;28;81803;-66
2021/10/01 21:49:47;;;;;;;6.72;4.63;;;20.80;53.00;;;;;;20728103;28;81098;-62
2021/10/01 21:59:53;;;;;;;7.63;4.22;;;20.70;52.20;;;;;;20726507;28;81855;-63
2021/10/01 22:20:20;;;;;;;10.35;4.32;;;20.60;51.70;;;;;;20726702;28;81871;-65
2021/10/01 22:30:24;;;;;;;10.05;5.20;;;20.40;52.50;;;;;;20726226;28;81846;-62
2021/10/01 22:40:29;;;;;;;10.25;4.88;;;20.10;52.70;;;;;;20722744;28;81633;-69
2021/10/01 22:50:37;;;;;;;13.30;5.70;;;20.00;53.20;;;;;;20724264;28;81916;-64
2021/10/01 23:00:40;;;;;;;8.60;4.50;;;19.90;54.10;;;;;;20723092;28;81172;-66
2021/10/01 23:10:50;;;;;;;7.90;4.75;;;19.80;54.80;;;;;;20721754;28;80810;-72
2021/10/01 23:52:15;;;;;;;9.80;4.60;;;19.20;54.10;;;;;;20707432;28;81078;-72
